Time;durP1;ratioP1;P1;durP2;ratioP2;P2;SDS_P1;SDS_P2;PMS_P1;PMS_P2;Temp;Humidity;BMP_temperature;BMP_pressure;BME280_temperature;BME280_humidity;BME280_pressure;Samples;Min_cycle;Max_cycle;Signal;HPM_P1;HPM_P2
2021/01/18 06:01:50;;;;;;;0.10;0.10;;;;;;;;;;5065837;28;20438;-54
2021/01/18 06:04:17;;;;;;;0.10;0.10;;;;;;;;;;5051236;28;20125;-52
2021/01/18 06:06:44;;;;;;;0.20;0.20;;;;;;;;;;5047605;28;20039;-54
2021/01/18 06:09:10;;;;;;;0.10;0.10;;;;;;;;;;5046764;28;20044;-52
2021/01/18 06:11:36;;;;;;;0.10;0.10;;;;;;;;;;5051385;28;20079;-53
2021/01/18 06:14:04;;;;;;;0.10;0.10;;;;;;;;;;5048852;28;20028;-54
2021/01/18 06:16:31;;;;;;;0.13;0.13;;;;;;;;;;5049061;28;20036;-51
2021/01/18 06:19:01;;;;;;;0.10;0.10;;;;;;;;;;5049067;28;20029;-52
2021/01/18 06:21:36;;;;;;;0.10;0.10;;;;;;;;;;5044983;28;20025;-55
2021/01/18 06:24:15;;;;;;;0.13;0.13;;;;;;;;;;5049022;28;20033;-51
2021/01/18 06:26:41;;;;;;;0.10;0.10;;;;;;;;;;5051753;28;20025;-56
2021/01/18 06:29:07;;;;;;;0.10;0.10;;;;;;;;;;5048799;28;20059;-51
2021/01/18 06:31:46;;;;;;;0.20;0.20;;;;;;;;;;5048577;28;20478;-54
2021/01/18 06:34:27;;;;;;;0.20;0.20;;;;;;;;;;5048079;28;20044;-52
2021/01/18 06:36:54;;;;;;;0.10;0.10;;;;;;;;;;5048311;28;20021;-51
2021/01/18 06:39:24;;;;;;;0.20;0.20;;;;;;;;;;5043964;28;20040;-53
2021/01/18 06:41:55;;;;;;;0.13;0.13;;;;;;;;;;5051336;28;20032;-51
2021/01/18 06:44:32;;;;;;;0.20;0.20;;;;;;;;;;5049534;28;20048;-51
2021/01/18 06:46:58;;;;;;;0.20;0.20;;;;;;;;;;5048461;28;20029;-55
2021/01/18 06:49:25;;;;;;;0.10;0.10;;;;;;;;;;5047902;28;20040;-52
2021/01/18 06:51:52;;;;;;;0.10;0.10;;;;;;;;;;5048497;28;20028;-54
2021/01/18 06:54:20;;;;;;;0.10;0.10;;;;;;;;;;5028483;28;20013;-52
2021/01/18 06:56:57;;;;;;;0.20;0.20;;;;;;;;;;5059093;28;20106;-54
2021/01/18 06:59:42;;;;;;;0.13;0.13;;;;;;;;;;5046852;28;20498;-55
2021/01/18 07:02:14;;;;;;;0.10;0.10;;;;;;;;;;5031396;28;20038;-55
2021/01/18 07:04:45;;;;;;;0.10;0.10;;;;;;;;;;5027465;28;20034;-52
2021/01/18 07:07:22;;;;;;;0.20;0.20;;;;;;;;;;5027889;28;20033;-54
2021/01/18 07:09:54;;;;;;;0.10;0.10;;;;;;;;;;5027946;28;20044;-51
2021/01/18 07:12:23;;;;;;;0.13;0.13;;;;;;;;;;5012252;28;20024;-53
2021/01/18 07:14:56;;;;;;;0.10;0.10;;;;;;;;;;5031162;28;20398;-55
2021/01/18 07:17:27;;;;;;;0.10;0.10;;;;;;;;;;5031761;28;20092;-51
2021/01/18 07:19:58;;;;;;;0.20;0.20;;;;;;;;;;5029672;28;20026;-51
2021/01/18 07:22:24;;;;;;;0.10;0.10;;;;;;;;;;5029851;28;20032;-51
2021/01/18 07:24:54;;;;;;;0.10;0.10;;;;;;;;;;5029489;28;20561;-53
2021/01/18 07:27:24;;;;;;;0.10;0.10;;;;;;;;;;5014667;28;20395;-51
2021/01/18 07:29:50;;;;;;;0.10;0.10;;;;;;;;;;5030220;28;20034;-54
2021/01/18 07:32:17;;;;;;;0.15;0.15;;;;;;;;;;5025727;28;20030;-55
2021/01/18 07:34:43;;;;;;;0.20;0.20;;;;;;;;;;5027526;28;20072;-52
2021/01/18 07:37:11;;;;;;;0.20;0.20;;;;;;;;;;5026197;28;20124;-50
2021/01/18 07:39:41;;;;;;;0.20;0.20;;;;;;;;;;5028912;28;20112;-51
2021/01/18 07:42:26;;;;;;;0.20;0.20;;;;;;;;;;5029669;28;20395;-53
2021/01/18 07:45:11;;;;;;;0.13;0.13;;;;;;;;;;5031474;28;20496;-52
2021/01/18 07:47:55;;;;;;;0.22;0.22;;;;;;;;;;5030613;28;20096;-52
2021/01/18 07:50:31;;;;;;;0.17;0.17;;;;;;;;;;5031299;28;20041;-54
2021/01/18 07:53:01;;;;;;;0.20;0.20;;;;;;;;;;5029101;28;20406;-52
2021/01/18 07:55:27;;;;;;;0.60;0.60;;;;;;;;;;5030514;28;20025;-51
2021/01/18 07:57:53;;;;;;;0.60;0.60;;;;;;;;;;5029939;28;20113;-52
2021/01/18 08:00:20;;;;;;;2.92;0.98;;;;;;;;;;5028501;28;20041;-52
2021/01/18 08:02:46;;;;;;;0.20;0.20;;;;;;;;;;5031612;28;20553;-51
2021/01/18 08:05:25;;;;;;;0.20;0.20;;;;;;;;;;5029808;28;20075;-52
2021/01/18 08:08:02;;;;;;;0.10;0.10;;;;;;;;;;5027892;28;20557;-50
2021/01/18 08:10:47;;;;;;;0.10;0.10;;;;;;;;;;5027877;28;20033;-54
2021/01/18 08:13:29;;;;;;;0.20;0.20;;;;;;;;;;5023003;28;20514;-53
2021/01/18 08:15:56;;;;;;;0.20;0.20;;;;;;;;;;5028643;28;20021;-52
2021/01/18 08:18:25;;;;;;;0.10;0.10;;;;;;;;;;5028141;28;20510;-52
2021/01/18 08:20:51;;;;;;;0.17;0.17;;;;;;;;;;5030643;28;20449;-53
2021/01/18 08:23:36;;;;;;;0.10;0.10;;;;;;;;;;5029336;28;20032;-51
2021/01/18 08:26:04;;;;;;;0.10;0.10;;;;;;;;;;5026887;28;20509;-52
2021/01/18 08:28:30;;;;;;;0.20;0.20;;;;;;;;;;5028754;28;20403;-56
2021/01/18 08:30:56;;;;;;;0.10;0.10;;;;;;;;;;5028706;28;20029;-51
2021/01/18 08:33:25;;;;;;;0.10;0.10;;;;;;;;;;5029238;28;20013;-52
2021/01/18 08:35:52;;;;;;;0.10;0.10;;;;;;;;;;5030536;28;20032;-50
2021/01/18 08:38:23;;;;;;;0.20;0.20;;;;;;;;;;5029775;28;20053;-52
2021/01/18 08:40:50;;;;;;;0.10;0.10;;;;;;;;;;5029045;28;20041;-53
2021/01/18 08:43:17;;;;;;;0.10;0.10;;;;;;;;;;5028678;28;20035;-53
2021/01/18 08:45:43;;;;;;;0.10;0.10;;;;;;;;;;5028646;28;20187;-51
2021/01/18 08:48:10;;;;;;;0.30;0.30;;;;;;;;;;5029565;28;20054;-51
2021/01/18 08:50:45;;;;;;;0.13;0.13;;;;;;;;;;5030381;28;20127;-52
2021/01/18 08:53:30;;;;;;;0.20;0.20;;;;;;;;;;5027988;28;20482;-52
2021/01/18 08:56:00;;;;;;;0.10;0.10;;;;;;;;;;5028626;28;20022;-51
2021/01/18 08:58:34;;;;;;;0.20;0.20;;;;;;;;;;5028077;28;20140;-54
2021/01/18 09:01:01;;;;;;;0.20;0.20;;;;;;;;;;5027217;28;20049;-52
2021/01/18 09:03:27;;;;;;;0.10;0.10;;;;;;;;;;5028379;28;20109;-52
2021/01/18 09:05:55;;;;;;;0.10;0.10;;;;;;;;;;5029952;28;20109;-52
2021/01/18 09:08:22;;;;;;;0.45;0.40;;;;;;;;;;5028752;28;20022;-54
2021/01/18 09:10:54;;;;;;;0.17;0.17;;;;;;;;;;5028157;28;20037;-52
2021/01/18 09:13:21;;;;;;;4.07;0.45;;;;;;;;;;5025386;28;20106;-53
2021/01/18 09:15:48;;;;;;;0.13;0.13;;;;;;;;;;5028048;28;20085;-51
2021/01/18 09:18:14;;;;;;;0.20;0.20;;;;;;;;;;5028491;28;20014;-53
2021/01/18 09:20:40;;;;;;;0.63;0.50;;;;;;;;;;5029841;28;20069;-56
2021/01/18 09:23:07;;;;;;;0.20;0.20;;;;;;;;;;5028773;28;20025;-52
2021/01/18 09:25:34;;;;;;;0.28;0.28;;;;;;;;;;5029094;28;20021;-52
2021/01/18 09:28:07;;;;;;;0.10;0.10;;;;;;;;;;5029339;28;20433;-52
2021/01/18 09:30:34;;;;;;;0.10;0.10;;;;;;;;;;5026846;28;20045;-50
2021/01/18 09:33:01;;;;;;;0.20;0.20;;;;;;;;;;5028572;28;20052;-54
2021/01/18 09:35:28;;;;;;;0.40;0.40;;;;;;;;;;5029628;28;20028;-51
2021/01/18 09:37:55;;;;;;;0.63;0.63;;;;;;;;;;5027592;28;20021;-50
2021/01/18 09:40:21;;;;;;;0.22;0.22;;;;;;;;;;5029213;28;20038;-50
2021/01/18 09:42:51;;;;;;;0.10;0.10;;;;;;;;;;5028697;28;20363;-55
2021/01/18 09:45:17;;;;;;;0.45;0.43;;;;;;;;;;5027905;28;20033;-53
2021/01/18 09:47:44;;;;;;;0.10;0.10;;;;;;;;;;5029852;28;20482;-51
2021/01/18 09:50:11;;;;;;;0.10;0.10;;;;;;;;;;5027970;28;20017;-53
2021/01/18 09:52:38;;;;;;;0.15;0.15;;;;;;;;;;5028246;28;20017;-52
2021/01/18 09:55:09;;;;;;;0.20;0.20;;;;;;;;;;5028215;28;20446;-55
2021/01/18 09:57:37;;;;;;;0.20;0.20;;;;;;;;;;5028825;28;20489;-51
2021/01/18 10:00:03;;;;;;;0.17;0.17;;;;;;;;;;5027602;28;20045;-53
2021/01/18 10:02:42;;;;;;;0.75;0.75;;;;;;;;;;5028395;28;20026;-51
2021/01/18 10:05:08;;;;;;;0.30;0.30;;;;;;;;;;5027797;28;20033;-52
2021/01/18 10:07:39;;;;;;;0.20;0.20;;;;;;;;;;5028548;28;20040;-53
2021/01/18 10:10:05;;;;;;;0.20;0.20;;;;;;;;;;5028127;28;20033;-55
2021/01/18 10:12:33;;;;;;;0.10;0.10;;;;;;;;;;5027738;28;20494;-52
2021/01/18 10:14:59;;;;;;;0.68;0.68;;;;;;;;;;5028816;28;20030;-51
2021/01/18 10:17:32;;;;;;;0.10;0.10;;;;;;;;;;5029741;28;20032;-50
2021/01/18 10:20:03;;;;;;;0.28;0.28;;;;;;;;;;5027411;28;20041;-51
2021/01/18 10:22:34;;;;;;;0.47;0.40;;;;;;;;;;5027132;28;20521;-52
2021/01/18 10:25:00;;;;;;;0.10;0.10;;;;;;;;;;5027785;28;20022;-52
2021/01/18 10:27:28;;;;;;;0.10;0.10;;;;;;;;;;5027432;28;20053;-52
2021/01/18 10:30:26;;;;;;;0.10;0.10;;;;;;;;;;5028355;28;20477;-55
2021/01/18 10:32:53;;;;;;;0.20;0.20;;;;;;;;;;4967267;28;20147;-55
2021/01/18 10:35:21;;;;;;;0.20;0.20;;;;;;;;;;4968017;28;20519;-53
2021/01/18 10:37:48;;;;;;;0.10;0.10;;;;;;;;;;4969732;28;20041;-56
2021/01/18 10:40:14;;;;;;;0.20;0.20;;;;;;;;;;4970903;28;20035;-54
2021/01/18 10:42:50;;;;;;;0.10;0.10;;;;;;;;;;4970548;28;20317;-53
2021/01/18 10:45:18;;;;;;;0.10;0.10;;;;;;;;;;4970600;28;20046;-52
2021/01/18 10:47:53;;;;;;;0.20;0.20;;;;;;;;;;4971731;28;20027;-54
2021/01/18 10:50:23;;;;;;;0.55;0.55;;;;;;;;;;4970985;28;20385;-51
2021/01/18 10:52:49;;;;;;;0.10;0.10;;;;;;;;;;4969722;28;20038;-52
2021/01/18 10:55:17;;;;;;;0.40;0.40;;;;;;;;;;4970765;28;20140;-53
2021/01/18 10:57:45;;;;;;;0.10;0.10;;;;;;;;;;4971144;28;20023;-55
2021/01/18 11:00:32;;;;;;;0.10;0.10;;;;;;;;;;4969547;28;20055;-52
2021/01/18 11:03:02;;;;;;;0.10;0.10;;;;;;;;;;4970968;28;20131;-56
2021/01/18 11:05:39;;;;;;;0.10;0.10;;;;;;;;;;4971483;28;20043;-53
2021/01/18 11:08:09;;;;;;;0.10;0.10;;;;;;;;;;4992261;28;20151;-54
2021/01/18 11:10:36;;;;;;;8.35;0.93;;;;;;;;;;5030071;28;20025;-55
2021/01/18 11:13:05;;;;;;;0.15;0.15;;;;;;;;;;5030702;28;20041;-54
2021/01/18 11:15:32;;;;;;;0.38;0.38;;;;;;;;;;5025805;28;20022;-54
2021/01/18 11:17:58;;;;;;;0.10;0.10;;;;;;;;;;5030120;28;20479;-53
2021/01/18 11:20:25;;;;;;;1.85;0.88;;;;;;;;;;5032324;28;20979;-56
2021/01/18 11:22:51;;;;;;;4.10;0.45;;;;;;;;;;5028170;28;20060;-52
2021/01/18 11:25:18;;;;;;;0.10;0.10;;;;;;;;;;5030369;28;20457;-55
2021/01/18 11:27:44;;;;;;;1.38;0.28;;;;;;;;;;5030798;28;20022;-55
2021/01/18 11:30:11;;;;;;;0.10;0.10;;;;;;;;;;5030790;28;20029;-51
2021/01/18 11:32:37;;;;;;;1.63;0.35;;;;;;;;;;5031882;28;20022;-56
2021/01/18 11:35:03;;;;;;;0.63;0.63;;;;;;;;;;5030315;28;20025;-56
2021/01/18 11:37:29;;;;;;;2.75;0.22;;;;;;;;;;5030746;28;20017;-51
2021/01/18 11:39:55;;;;;;;1.10;0.63;;;;;;;;;;5030155;28;20045;-54
2021/01/18 11:42:21;;;;;;;0.10;0.10;;;;;;;;;;5030128;28;20374;-55
2021/01/18 11:44:47;;;;;;;3.35;0.80;;;;;;;;;;5031084;28;20120;-55
2021/01/18 11:47:14;;;;;;;0.10;0.10;;;;;;;;;;5030116;28;20026;-52
2021/01/18 11:49:40;;;;;;;3.90;0.93;;;;;;;;;;5030695;28;20030;-54
2021/01/18 11:52:06;;;;;;;0.10;0.10;;;;;;;;;;5029085;28;20553;-54
2021/01/18 11:54:32;;;;;;;4.13;0.60;;;;;;;;;;5029489;28;20026;-56
2021/01/18 11:56:58;;;;;;;3.63;0.63;;;;;;;;;;5030564;28;20029;-55
2021/01/18 11:59:24;;;;;;;0.40;0.40;;;;;;;;;;5030466;28;20040;-55
2021/01/18 12:01:50;;;;;;;0.57;0.35;;;;;;;;;;5028809;28;20037;-55
2021/01/18 12:04:16;;;;;;;4.07;2.05;;;;;;;;;;5028889;28;20022;-53
2021/01/18 12:06:42;;;;;;;2.47;0.63;;;;;;;;;;5028729;28;20037;-55
2021/01/18 12:09:09;;;;;;;0.30;0.30;;;;;;;;;;5028764;28;20526;-53
2021/01/18 12:11:39;;;;;;;1.58;0.47;;;;;;;;;;5030606;28;20553;-51
2021/01/18 12:14:05;;;;;;;1.50;0.55;;;;;;;;;;5028691;28;21038;-53
2021/01/18 12:16:32;;;;;;;0.17;0.17;;;;;;;;;;5028847;28;20375;-54
2021/01/18 12:18:58;;;;;;;0.40;0.40;;;;;;;;;;5028942;28;20075;-52
2021/01/18 12:21:24;;;;;;;0.30;0.30;;;;;;;;;;5029280;28;20049;-53
2021/01/18 12:23:50;;;;;;;3.38;0.90;;;;;;;;;;5029458;28;20517;-55
2021/01/18 12:26:17;;;;;;;1.27;0.80;;;;;;;;;;5029486;28;20064;-54
2021/01/18 12:28:43;;;;;;;5.78;0.50;;;;;;;;;;5028466;28;20452;-54
2021/01/18 12:31:09;;;;;;;0.22;0.22;;;;;;;;;;5028154;28;20075;-50
2021/01/18 12:33:35;;;;;;;0.90;0.22;;;;;;;;;;5029398;28;20079;-50
2021/01/18 12:36:01;;;;;;;0.93;0.52;;;;;;;;;;5029380;28;20075;-53
2021/01/18 12:38:27;;;;;;;0.15;0.15;;;;;;;;;;5030193;28;20034;-54
2021/01/18 12:40:54;;;;;;;0.95;0.82;;;;;;;;;;5028355;28;20036;-51
2021/01/18 12:43:20;;;;;;;1.45;0.10;;;;;;;;;;5027686;28;20028;-52
2021/01/18 12:45:47;;;;;;;0.17;0.17;;;;;;;;;;5027659;28;20053;-52
2021/01/18 12:48:13;;;;;;;1.25;0.82;;;;;;;;;;5028025;28;20044;-53
2021/01/18 12:50:44;;;;;;;5.18;0.50;;;;;;;;;;5029817;28;20418;-54
2021/01/18 12:53:10;;;;;;;1.75;1.30;;;;;;;;;;5027873;28;20021;-52
2021/01/18 12:55:36;;;;;;;3.08;0.55;;;;;;;;;;5026709;28;20055;-53
2021/01/18 12:58:03;;;;;;;0.22;0.10;;;;;;;;;;5028398;28;20108;-52
2021/01/18 13:00:29;;;;;;;0.10;0.10;;;;;;;;;;5027740;28;20073;-51
2021/01/18 13:02:55;;;;;;;0.40;0.40;;;;;;;;;;5028641;28;20022;-57
2021/01/18 13:05:21;;;;;;;0.20;0.20;;;;;;;;;;5028049;28;20048;-51
2021/01/18 13:07:50;;;;;;;2.65;0.55;;;;;;;;;;5027881;28;20475;-53
2021/01/18 13:10:17;;;;;;;0.10;0.10;;;;;;;;;;5027654;28;20025;-56
2021/01/18 13:12:43;;;;;;;0.60;0.20;;;;;;;;;;5027158;28;20033;-53
2021/01/18 13:15:10;;;;;;;0.10;0.10;;;;;;;;;;5026742;28;20402;-54
2021/01/18 13:17:36;;;;;;;0.10;0.10;;;;;;;;;;5029875;28;20037;-50
2021/01/18 13:20:04;;;;;;;0.10;0.10;;;;;;;;;;5028560;28;20712;-54
2021/01/18 13:22:30;;;;;;;0.10;0.10;;;;;;;;;;5028485;28;20494;-51
2021/01/18 13:24:56;;;;;;;1.65;0.32;;;;;;;;;;5028616;28;20025;-54
2021/01/18 13:27:22;;;;;;;0.28;0.22;;;;;;;;;;5029088;28;20029;-52
2021/01/18 13:29:48;;;;;;;1.60;0.60;;;;;;;;;;5030681;28;20022;-53
2021/01/18 13:32:14;;;;;;;0.10;0.10;;;;;;;;;;5028957;28;20270;-52
2021/01/18 13:34:42;;;;;;;0.10;0.10;;;;;;;;;;5028228;28;20026;-54
2021/01/18 13:37:08;;;;;;;6.03;0.80;;;;;;;;;;5028499;28;20025;-53
2021/01/18 13:39:34;;;;;;;0.28;0.25;;;;;;;;;;5027076;28;20029;-52
2021/01/18 13:42:00;;;;;;;3.30;1.33;;;;;;;;;;5029046;28;20429;-52
2021/01/18 13:44:26;;;;;;;0.10;0.10;;;;;;;;;;5029731;28;20033;-51
2021/01/18 13:46:53;;;;;;;5.35;2.80;;;;;;;;;;5028594;28;20391;-50
2021/01/18 13:49:19;;;;;;;0.20;0.20;;;;;;;;;;5028387;28;20018;-51
2021/01/18 13:51:45;;;;;;;0.10;0.10;;;;;;;;;;5029023;28;20117;-51
2021/01/18 13:54:11;;;;;;;0.10;0.10;;;;;;;;;;5027434;28;20055;-51
2021/01/18 13:56:37;;;;;;;0.45;0.45;;;;;;;;;;5030037;28;20021;-52
2021/01/18 13:59:03;;;;;;;0.17;0.17;;;;;;;;;;5026842;28;20483;-50
2021/01/18 14:01:30;;;;;;;1.38;0.63;;;;;;;;;;5027780;28;20042;-60
2021/01/18 14:03:57;;;;;;;0.10;0.10;;;;;;;;;;5024894;28;20057;-60
2021/01/18 14:06:23;;;;;;;2.05;0.57;;;;;;;;;;5026932;28;20022;-60
2021/01/18 14:08:50;;;;;;;0.63;0.35;;;;;;;;;;5028240;28;20036;-60
2021/01/18 14:11:16;;;;;;;0.38;0.25;;;;;;;;;;5028949;28;20474;-60
2021/01/18 14:13:42;;;;;;;0.20;0.20;;;;;;;;;;5031448;28;20021;-60
2021/01/18 14:16:12;;;;;;;0.10;0.10;;;;;;;;;;5032151;28;20060;-60
2021/01/18 14:18:38;;;;;;;1.05;0.95;;;;;;;;;;5031375;28;20091;-60
2021/01/18 14:21:04;;;;;;;5.45;0.90;;;;;;;;;;5031443;28;20434;-59
2021/01/18 14:23:30;;;;;;;1.33;0.57;;;;;;;;;;5032442;28;20582;-59
2021/01/18 14:25:56;;;;;;;2.40;1.00;;;;;;;;;;5031134;28;20033;-60
2021/01/18 14:28:23;;;;;;;2.70;0.28;;;;;;;;;;5031642;28;20402;-59
2021/01/18 14:30:49;;;;;;;0.10;0.10;;;;;;;;;;5032199;28;20955;-60
2021/01/18 14:33:15;;;;;;;0.28;0.28;;;;;;;;;;5031458;28;20403;-60
2021/01/18 14:35:41;;;;;;;0.30;0.30;;;;;;;;;;5033039;28;20022;-60
2021/01/18 14:38:08;;;;;;;1.45;0.55;;;;;;;;;;5032547;28;20437;-59
2021/01/18 14:40:36;;;;;;;0.10;0.10;;;;;;;;;;5031505;28;20410;-60
2021/01/18 14:43:04;;;;;;;3.50;0.57;;;;;;;;;;5030688;28;20029;-60
2021/01/18 14:45:30;;;;;;;3.67;0.40;;;;;;;;;;5031744;28;20025;-59
2021/01/18 14:47:56;;;;;;;0.28;0.20;;;;;;;;;;5031532;28;20018;-60
2021/01/18 14:50:22;;;;;;;0.25;0.22;;;;;;;;;;5032565;28;20052;-60
2021/01/18 14:52:48;;;;;;;0.77;0.77;;;;;;;;;;5031553;28;20076;-59
2021/01/18 14:55:14;;;;;;;0.10;0.10;;;;;;;;;;5031659;28;20064;-59
2021/01/18 14:57:44;;;;;;;0.63;0.40;;;;;;;;;;5029323;28;20399;-59
2021/01/18 15:00:10;;;;;;;0.70;0.70;;;;;;;;;;5028924;28;20451;-59
2021/01/18 15:02:39;;;;;;;1.75;1.65;;;;;;;;;;5031053;28;20018;-60
2021/01/18 15:05:05;;;;;;;0.10;0.10;;;;;;;;;;5028898;28;20087;-60
2021/01/18 15:07:36;;;;;;;1.27;0.47;;;;;;;;;;5028883;28;20037;-59
2021/01/18 15:10:03;;;;;;;0.20;0.20;;;;;;;;;;5030345;28;20029;-59
2021/01/18 15:12:29;;;;;;;2.08;1.25;;;;;;;;;;5028996;28;20483;-60
2021/01/18 15:14:55;;;;;;;0.10;0.10;;;;;;;;;;5030960;28;20048;-60
2021/01/18 15:17:21;;;;;;;1.00;1.00;;;;;;;;;;5028897;28;20034;-59
2021/01/18 15:19:47;;;;;;;0.10;0.10;;;;;;;;;;5028632;28;20095;-60
2021/01/18 15:22:13;;;;;;;0.10;0.10;;;;;;;;;;5028697;28;20025;-59
2021/01/18 15:24:39;;;;;;;0.10;0.10;;;;;;;;;;5028860;28;20096;-59
2021/01/18 15:27:07;;;;;;;0.45;0.30;;;;;;;;;;5031329;28;20036;-60
2021/01/18 15:29:33;;;;;;;0.10;0.10;;;;;;;;;;5028733;28;20380;-60
2021/01/18 15:31:59;;;;;;;0.20;0.20;;;;;;;;;;5029003;28;20032;-60
2021/01/18 15:34:25;;;;;;;0.10;0.10;;;;;;;;;;5028835;28;20467;-60
2021/01/18 15:36:52;;;;;;;0.10;0.10;;;;;;;;;;5028896;28;20079;-61
2021/01/18 15:39:19;;;;;;;2.92;2.70;;;;;;;;;;5029620;28;20033;-60
2021/01/18 15:41:46;;;;;;;0.65;0.20;;;;;;;;;;5032217;28;20041;-60
2021/01/18 15:44:12;;;;;;;0.10;0.10;;;;;;;;;;5028850;28;20021;-60
2021/01/18 15:46:38;;;;;;;0.20;0.20;;;;;;;;;;5029525;28;20040;-59
2021/01/18 15:49:04;;;;;;;0.30;0.30;;;;;;;;;;5030194;28;20064;-60
2021/01/18 15:51:30;;;;;;;1.40;1.30;;;;;;;;;;5029839;28;20040;-59
2021/01/18 15:53:56;;;;;;;0.15;0.15;;;;;;;;;;5029318;28;20026;-60
2021/01/18 15:56:29;;;;;;;4.82;0.65;;;;;;;;;;5030261;28;20022;-59
2021/01/18 15:58:55;;;;;;;0.20;0.20;;;;;;;;;;5026932;28;20037;-59
2021/01/18 16:01:21;;;;;;;0.30;0.30;;;;;;;;;;5025719;28;20041;-60
2021/01/18 16:03:48;;;;;;;0.38;0.38;;;;;;;;;;5026486;28;20041;-53
2021/01/18 16:06:14;;;;;;;0.10;0.10;;;;;;;;;;5015192;28;20032;-55
2021/01/18 16:08:40;;;;;;;0.30;0.20;;;;;;;;;;5018179;28;20056;-52
2021/01/18 16:11:06;;;;;;;0.28;0.28;;;;;;;;;;5016754;28;20152;-55
2021/01/18 16:13:32;;;;;;;0.10;0.10;;;;;;;;;;5017261;28;20040;-51
2021/01/18 16:15:59;;;;;;;0.30;0.30;;;;;;;;;;5018067;28;20084;-55
2021/01/18 16:18:25;;;;;;;1.85;0.65;;;;;;;;;;5016397;28;20163;-51
2021/01/18 16:20:51;;;;;;;0.10;0.10;;;;;;;;;;5016787;28;20507;-50
2021/01/18 16:23:17;;;;;;;0.10;0.10;;;;;;;;;;5016428;28;20018;-50
2021/01/18 16:25:43;;;;;;;2.63;2.45;;;;;;;;;;5014320;28;20022;-51
2021/01/18 16:28:10;;;;;;;3.40;0.50;;;;;;;;;;5014373;28;20034;-50
2021/01/18 16:30:36;;;;;;;0.10;0.10;;;;;;;;;;5014019;28;20034;-54
2021/01/18 16:33:02;;;;;;;0.13;0.10;;;;;;;;;;5012031;28;20502;-52
2021/01/18 16:35:28;;;;;;;0.10;0.10;;;;;;;;;;5015277;28;20490;-51
2021/01/18 16:37:54;;;;;;;3.53;1.23;;;;;;;;;;5023853;28;20491;-50
2021/01/18 16:40:23;;;;;;;0.32;0.30;;;;;;;;;;5023891;28;20123;-51
2021/01/18 16:42:50;;;;;;;0.43;0.40;;;;;;;;;;5024225;28;20034;-51
2021/01/18 16:45:16;;;;;;;0.10;0.10;;;;;;;;;;5024294;28;20034;-51
2021/01/18 16:47:43;;;;;;;0.47;0.45;;;;;;;;;;5030142;28;20017;-58
2021/01/18 16:50:10;;;;;;;0.20;0.20;;;;;;;;;;5026112;28;20032;-59
2021/01/18 16:52:41;;;;;;;0.20;0.20;;;;;;;;;;5027776;28;20482;-59
2021/01/18 16:55:07;;;;;;;0.10;0.10;;;;;;;;;;5027132;28;20514;-52
2021/01/18 16:57:34;;;;;;;0.10;0.10;;;;;;;;;;5025222;28;20018;-51
2021/01/18 17:00:00;;;;;;;0.32;0.32;;;;;;;;;;5024861;28;20136;-56
2021/01/18 17:02:27;;;;;;;0.10;0.10;;;;;;;;;;5018772;28;20410;-53
2021/01/18 17:04:53;;;;;;;0.10;0.10;;;;;;;;;;5023561;28;20542;-53
2021/01/18 17:07:19;;;;;;;0.20;0.20;;;;;;;;;;5023312;28;20028;-54
2021/01/18 17:09:45;;;;;;;0.30;0.30;;;;;;;;;;5025144;28;20061;-55
2021/01/18 17:12:12;;;;;;;0.20;0.20;;;;;;;;;;5028842;28;20476;-51
2021/01/18 17:14:38;;;;;;;0.30;0.30;;;;;;;;;;5032087;28;20125;-53
2021/01/18 17:17:05;;;;;;;1.40;0.90;;;;;;;;;;5030084;28;20036;-51
2021/01/18 17:19:31;;;;;;;0.77;0.60;;;;;;;;;;5030053;28;20017;-50
2021/01/18 17:21:58;;;;;;;0.60;0.47;;;;;;;;;;5025743;28;20037;-51
2021/01/18 17:24:26;;;;;;;0.65;0.65;;;;;;;;;;5026848;28;20089;-51
2021/01/18 17:26:52;;;;;;;0.13;0.13;;;;;;;;;;5022998;28;20037;-53
2021/01/18 17:29:19;;;;;;;0.30;0.30;;;;;;;;;;5026159;28;20047;-51
2021/01/18 17:31:46;;;;;;;0.10;0.10;;;;;;;;;;5025643;28;20028;-53
2021/01/18 17:34:12;;;;;;;0.10;0.10;;;;;;;;;;5024971;28;20040;-54
2021/01/18 17:36:38;;;;;;;0.10;0.10;;;;;;;;;;5024979;28;20025;-51
2021/01/18 17:39:05;;;;;;;0.15;0.15;;;;;;;;;;5024587;28;20047;-53
2021/01/18 17:41:31;;;;;;;0.10;0.10;;;;;;;;;;5025302;28;20041;-54
2021/01/18 17:44:01;;;;;;;0.73;0.73;;;;;;;;;;5024145;28;20529;-53
2021/01/18 17:46:33;;;;;;;0.10;0.10;;;;;;;;;;5024206;28;20028;-53
2021/01/18 17:49:00;;;;;;;0.10;0.10;;;;;;;;;;5025004;28;20498;-57
2021/01/18 17:51:26;;;;;;;0.10;0.10;;;;;;;;;;5024361;28;20022;-54
2021/01/18 17:53:52;;;;;;;0.30;0.20;;;;;;;;;;5024603;28;20402;-52
2021/01/18 17:56:18;;;;;;;0.00;0.00;;;;;;;;;;5022843;28;20033;-54
2021/01/18 17:58:44;;;;;;;0.10;0.10;;;;;;;;;;5024663;28;20287;-52
2021/01/18 18:01:10;;;;;;;0.30;0.20;;;;;;;;;;5027394;28;20076;-51
2021/01/18 18:03:37;;;;;;;0.10;0.10;;;;;;;;;;5026205;28;20056;-55
2021/01/18 18:06:04;;;;;;;0.30;0.30;;;;;;;;;;5027702;28;20026;-54
2021/01/18 18:08:30;;;;;;;0.10;0.10;;;;;;;;;;5027929;28;20029;-54
2021/01/18 18:10:57;;;;;;;0.10;0.10;;;;;;;;;;5026543;28;20025;-54
2021/01/18 18:13:23;;;;;;;0.30;0.30;;;;;;;;;;5026718;28;20211;-53
2021/01/18 18:15:50;;;;;;;0.03;0.03;;;;;;;;;;5026667;28;20028;-56
2021/01/18 18:18:16;;;;;;;1.08;1.08;;;;;;;;;;5022267;28;20113;-53
2021/01/18 18:20:42;;;;;;;0.47;0.22;;;;;;;;;;5019709;28;20045;-55
2021/01/18 18:23:10;;;;;;;1.05;0.20;;;;;;;;;;5025830;28;20025;-53
2021/01/18 18:25:39;;;;;;;0.10;0.10;;;;;;;;;;5025594;28;20021;-55
2021/01/18 18:28:09;;;;;;;0.10;0.10;;;;;;;;;;5023138;28;20025;-54
2021/01/18 18:30:35;;;;;;;0.10;0.10;;;;;;;;;;5021190;28;20029;-55
2021/01/18 18:33:01;;;;;;;0.20;0.20;;;;;;;;;;5029105;28;20068;-55
2021/01/18 18:35:27;;;;;;;0.20;0.20;;;;;;;;;;5029793;28;20114;-57
2021/01/18 18:37:57;;;;;;;0.00;0.00;;;;;;;;;;5026772;28;20467;-56
2021/01/18 18:40:23;;;;;;;0.10;0.10;;;;;;;;;;5027687;28;20037;-56
2021/01/18 18:42:50;;;;;;;0.13;0.13;;;;;;;;;;5026945;28;20025;-55
2021/01/18 18:45:16;;;;;;;0.22;0.22;;;;;;;;;;5027946;28;20022;-54
2021/01/18 18:47:49;;;;;;;0.10;0.10;;;;;;;;;;5029452;28;20171;-54
2021/01/18 18:50:15;;;;;;;0.65;0.65;;;;;;;;;;5026806;28;20033;-54
2021/01/18 18:52:45;;;;;;;0.08;0.08;;;;;;;;;;5025983;28;20025;-56
2021/01/18 18:55:12;;;;;;;0.30;0.30;;;;;;;;;;5026608;28;20029;-55
2021/01/18 18:57:38;;;;;;;0.20;0.20;;;;;;;;;;5028187;28;20036;-55
2021/01/18 19:00:06;;;;;;;2.35;0.80;;;;;;;;;;5032102;28;20064;-55
2021/01/18 19:02:32;;;;;;;0.10;0.10;;;;;;;;;;5031447;28;20047;-56
2021/01/18 19:04:58;;;;;;;0.20;0.20;;;;;;;;;;5030025;28;20026;-56
2021/01/18 19:07:24;;;;;;;0.10;0.10;;;;;;;;;;5028688;28;20034;-56
2021/01/18 19:09:50;;;;;;;0.10;0.10;;;;;;;;;;5029576;28;20108;-55
2021/01/18 19:12:16;;;;;;;0.20;0.20;;;;;;;;;;5029505;28;20022;-56
2021/01/18 19:14:43;;;;;;;0.10;0.10;;;;;;;;;;5031391;28;20537;-56
2021/01/18 19:17:09;;;;;;;0.10;0.10;;;;;;;;;;5030643;28;20105;-56
2021/01/18 19:19:35;;;;;;;0.00;0.00;;;;;;;;;;5030459;28;20033;-55
2021/01/18 19:22:01;;;;;;;0.10;0.10;;;;;;;;;;5028421;28;20068;-57
2021/01/18 19:24:28;;;;;;;0.00;0.00;;;;;;;;;;5029033;28;20064;-55
2021/01/18 19:26:54;;;;;;;0.38;0.30;;;;;;;;;;5030277;28;20030;-56
2021/01/18 19:29:21;;;;;;;0.10;0.10;;;;;;;;;;5024148;28;20021;-56
2021/01/18 19:31:47;;;;;;;0.00;0.00;;;;;;;;;;5030194;28;20079;-56
2021/01/18 19:34:13;;;;;;;0.10;0.10;;;;;;;;;;5029750;28;20537;-57
2021/01/18 19:36:40;;;;;;;0.20;0.20;;;;;;;;;;5029233;28;20069;-57
2021/01/18 19:39:10;;;;;;;1.08;1.08;;;;;;;;;;5029058;28;20509;-53
2021/01/18 19:41:36;;;;;;;0.10;0.10;;;;;;;;;;5030149;28;20483;-57
2021/01/18 19:44:03;;;;;;;0.10;0.10;;;;;;;;;;5030447;28;20022;-58
2021/01/18 19:46:30;;;;;;;12.65;1.88;;;;;;;;;;5030516;28;20033;-54
2021/01/18 19:48:57;;;;;;;0.10;0.10;;;;;;;;;;5030548;28;20034;-55
2021/01/18 19:51:23;;;;;;;0.60;0.60;;;;;;;;;;5031083;28;20037;-56
2021/01/18 19:53:50;;;;;;;0.10;0.10;;;;;;;;;;5031432;28;20036;-55
2021/01/18 19:56:19;;;;;;;0.10;0.10;;;;;;;;;;5031209;28;20120;-57
2021/01/18 19:58:46;;;;;;;0.20;0.20;;;;;;;;;;5031262;28;20446;-56
2021/01/18 20:01:13;;;;;;;0.20;0.20;;;;;;;;;;5030929;28;20064;-52
2021/01/18 20:03:39;;;;;;;3.15;0.38;;;;;;;;;;5031123;28;20025;-52
2021/01/18 20:06:05;;;;;;;0.15;0.15;;;;;;;;;;5030941;28;20022;-57
2021/01/18 20:08:31;;;;;;;3.13;2.72;;;;;;;;;;5031873;28;20033;-54
2021/01/18 20:10:57;;;;;;;2.60;1.95;;;;;;;;;;5029249;28;20380;-53
2021/01/18 20:13:23;;;;;;;0.40;0.40;;;;;;;;;;5028794;28;20026;-54
2021/01/18 20:15:50;;;;;;;0.32;0.28;;;;;;;;;;5027687;28;20033;-56
2021/01/18 20:18:16;;;;;;;1.25;1.15;;;;;;;;;;5027271;28;20407;-54
2021/01/18 20:20:42;;;;;;;0.10;0.10;;;;;;;;;;5028757;28;20121;-57
2021/01/18 20:23:12;;;;;;;0.10;0.10;;;;;;;;;;5026062;28;20091;-51
2021/01/18 20:25:39;;;;;;;1.95;0.30;;;;;;;;;;5027153;28;20037;-56
2021/01/18 20:28:05;;;;;;;1.13;0.50;;;;;;;;;;5026794;28;20026;-56
2021/01/18 20:30:32;;;;;;;0.40;0.28;;;;;;;;;;5027276;28;20044;-56
2021/01/18 20:32:58;;;;;;;0.10;0.10;;;;;;;;;;5029323;28;20195;-55
2021/01/18 20:35:25;;;;;;;1.45;0.50;;;;;;;;;;5028388;28;20124;-56
2021/01/18 20:37:55;;;;;;;0.25;0.15;;;;;;;;;;5026276;28;20021;-56
2021/01/18 20:40:21;;;;;;;0.90;0.40;;;;;;;;;;5026500;28;20086;-55
2021/01/18 20:42:48;;;;;;;0.20;0.20;;;;;;;;;;5026598;28;20070;-55
2021/01/18 20:45:15;;;;;;;0.90;0.25;;;;;;;;;;5027921;28;20021;-55
2021/01/18 20:47:41;;;;;;;0.52;0.52;;;;;;;;;;5029028;28;20632;-56